sensor_id;sensor_type;location;lat;lon;timestamp;temperature;humidity
48264;DHT22;34086;51.076;13.722;2023-08-08T00:00:24;13.60;99.90
48264;DHT22;34086;51.076;13.722;2023-08-08T00:01:25;13.60;99.90
48264;DHT22;34086;51.076;13.722;2023-08-08T00:02:26;13.50;99.90
48264;DHT22;34086;51.076;13.722;2023-08-08T00:03:27;13.50;99.90
48264;DHT22;34086;51.076;13.722;2023-08-08T00:04:28;13.50;99.90
48264;DHT22;34086;51.076;13.722;2023-08-08T00:05:28;13.50;99.90
48264;DHT22;34086;51.076;13.722;2023-08-08T00:06:29;13.50;99.90
48264;DHT22;34086;51.076;13.722;2023-08-08T00:07:29;13.40;99.90
48264;DHT22;34086;51.076;13.722;2023-08-08T00:08:30;13.40;99.90
48264;DHT22;34086;51.076;13.722;2023-08-08T00:09:31;13.40;99.90
48264;DHT22;34086;51.076;13.722;2023-08-08T00:10:32;13.40;99.90
48264;DHT22;34086;51.076;13.722;2023-08-08T00:11:33;13.40;99.90
48264;DHT22;34086;51.076;13.722;2023-08-08T00:12:33;13.40;99.90
48264;DHT22;34086;51.076;13.722;2023-08-08T00:13:34;13.40;99.90
48264;DHT22;34086;51.076;13.722;2023-08-08T00:14:34;13.30;99.90
48264;DHT22;34086;51.076;13.722;2023-08-08T00:15:35;13.30;99.90
48264;DHT22;34086;51.076;13.722;2023-08-08T00:16:36;13.30;99.90
48264;DHT22;34086;51.076;13.722;2023-08-08T00:17:37;13.40;99.90
48264;DHT22;34086;51.076;13.722;2023-08-08T00:18:37;13.30;99.90
48264;DHT22;34086;51.076;13.722;2023-08-08T00:19:38;13.40;99.90
48264;DHT22;34086;51.076;13.722;2023-08-08T00:20:38;13.40;99.90
48264;DHT22;34086;51.076;13.722;2023-08-08T00:21:39;13.40;99.90
48264;DHT22;34086;51.076;13.722;2023-08-08T00:22:51;13.30;99.90
48264;DHT22;34086;51.076;13.722;2023-08-08T00:23:51;13.30;99.90
48264;DHT22;34086;51.076;13.722;2023-08-08T00:24:52;13.30;99.90
48264;DHT22;34086;51.076;13.722;2023-08-08T00:25:55;13.30;99.90
48264;DHT22;34086;51.076;13.722;2023-08-08T00:26:55;13.30;99.90
48264;DHT22;34086;51.076;13.722;2023-08-08T00:27:56;13.30;99.90
48264;DHT22;34086;51.076;13.722;2023-08-08T00:28:56;13.30;99.90
48264;DHT22;34086;51.076;13.722;2023-08-08T00:29:57;13.30;99.90
48264;DHT22;34086;51.076;13.722;2023-08-08T00:30:57;13.30;99.90
48264;DHT22;34086;51.076;13.722;2023-08-08T00:31:58;13.30;99.90
48264;DHT22;34086;51.076;13.722;2023-08-08T00:32:59;13.20;99.90
48264;DHT22;34086;51.076;13.722;2023-08-08T00:33:59;13.30;99.90
48264;DHT22;34086;51.076;13.722;2023-08-08T00:35:00;13.30;99.90
48264;DHT22;34086;51.076;13.722;2023-08-08T00:36:00;13.30;99.90
48264;DHT22;34086;51.076;13.722;2023-08-08T00:37:01;13.30;99.90
48264;DHT22;34086;51.076;13.722;2023-08-08T00:38:02;13.30;99.90
48264;DHT22;34086;51.076;13.722;2023-08-08T00:39:02;13.30;99.90
48264;DHT22;34086;51.076;13.722;2023-08-08T00:40:03;13.30;99.90
48264;DHT22;34086;51.076;13.722;2023-08-08T00:41:04;13.30;99.90
48264;DHT22;34086;51.076;13.722;2023-08-08T00:42:05;13.30;99.90
48264;DHT22;34086;51.076;13.722;2023-08-08T00:43:05;13.30;99.90
48264;DHT22;34086;51.076;13.722;2023-08-08T00:44:06;13.30;99.90
48264;DHT22;34086;51.076;13.722;2023-08-08T00:45:06;13.30;99.90
48264;DHT22;34086;51.076;13.722;2023-08-08T00:46:07;13.30;99.90
48264;DHT22;34086;51.076;13.722;2023-08-08T00:47:08;13.30;99.90
48264;DHT22;34086;51.076;13.722;2023-08-08T00:48:09;13.30;99.90
48264;DHT22;34086;51.076;13.722;2023-08-08T00:49:10;13.30;99.90
48264;DHT22;34086;51.076;13.722;2023-08-08T00:50:10;13.30;99.90
48264;DHT22;34086;51.076;13.722;2023-08-08T00:51:11;13.30;99.90
48264;DHT22;34086;51.076;13.722;2023-08-08T00:52:12;13.30;99.90
48264;DHT22;34086;51.076;13.722;2023-08-08T00:53:13;13.40;99.90
48264;DHT22;34086;51.076;13.722;2023-08-08T00:54:13;13.30;99.90
48264;DHT22;34086;51.076;13.722;2023-08-08T00:55:14;13.40;99.90
48264;DHT22;34086;51.076;13.722;2023-08-08T00:56:15;13.40;99.90
48264;DHT22;34086;51.076;13.722;2023-08-08T00:57:17;13.40;99.90
48264;DHT22;34086;51.076;13.722;2023-08-08T00:58:17;13.40;99.90
48264;DHT22;34086;51.076;13.722;2023-08-08T00:59:18;13.40;99.90
48264;DHT22;34086;51.076;13.722;2023-08-08T01:00:19;13.40;99.90
48264;DHT22;34086;51.076;13.722;2023-08-08T01:01:19;13.40;99.90
48264;DHT22;34086;51.076;13.722;2023-08-08T01:02:20;13.40;99.90
48264;DHT22;34086;51.076;13.722;2023-08-08T01:03:21;13.40;99.90
48264;DHT22;34086;51.076;13.722;2023-08-08T01:04:21;13.40;99.90
48264;DHT22;34086;51.076;13.722;2023-08-08T01:05:25;13.40;99.90
48264;DHT22;34086;51.076;13.722;2023-08-08T01:06:31;13.40;99.90
48264;DHT22;34086;51.076;13.722;2023-08-08T01:07:47;13.30;99.90
48264;DHT22;34086;51.076;13.722;2023-08-08T01:08:55;13.30;99.90
48264;DHT22;34086;51.076;13.722;2023-08-08T01:10:05;13.30;99.90
48264;DHT22;34086;51.076;13.722;2023-08-08T01:11:08;13.30;99.90
48264;DHT22;34086;51.076;13.722;2023-08-08T01:12:09;13.30;99.90
48264;DHT22;34086;51.076;13.722;2023-08-08T01:13:16;13.30;99.90
48264;DHT22;34086;51.076;13.722;2023-08-08T01:14:17;13.30;99.90
48264;DHT22;34086;51.076;13.722;2023-08-08T01:15:19;13.30;99.90
48264;DHT22;34086;51.076;13.722;2023-08-08T01:16:20;13.30;99.90
48264;DHT22;34086;51.076;13.722;2023-08-08T01:17:21;13.20;99.90
48264;DHT22;34086;51.076;13.722;2023-08-08T01:18:22;13.20;99.90
48264;DHT22;34086;51.076;13.722;2023-08-08T01:19:24;13.20;99.90
48264;DHT22;34086;51.076;13.722;2023-08-08T01:20:26;13.20;99.90
48264;DHT22;34086;51.076;13.722;2023-08-08T01:21:27;13.20;99.90
48264;DHT22;34086;51.076;13.722;2023-08-08T01:22:43;13.20;99.90
48264;DHT22;34086;51.076;13.722;2023-08-08T01:24:49;13.20;99.90
48264;DHT22;34086;51.076;13.722;2023-08-08T01:25:50;13.20;99.90
48264;DHT22;34086;51.076;13.722;2023-08-08T01:26:51;13.20;99.90
48264;DHT22;34086;51.076;13.722;2023-08-08T01:27:51;13.10;99.90
48264;DHT22;34086;51.076;13.722;2023-08-08T01:28:52;13.20;99.90
48264;DHT22;34086;51.076;13.722;2023-08-08T01:29:53;13.20;99.90
48264;DHT22;34086;51.076;13.722;2023-08-08T01:30:53;13.20;99.90
48264;DHT22;34086;51.076;13.722;2023-08-08T01:31:54;13.20;99.90
48264;DHT22;34086;51.076;13.722;2023-08-08T01:32:54;13.10;99.90
48264;DHT22;34086;51.076;13.722;2023-08-08T01:33:55;13.20;99.90
48264;DHT22;34086;51.076;13.722;2023-08-08T01:34:55;13.10;99.90
48264;DHT22;34086;51.076;13.722;2023-08-08T01:35:58;13.20;99.90
48264;DHT22;34086;51.076;13.722;2023-08-08T01:38:17;13.10;99.90
48264;DHT22;34086;51.076;13.722;2023-08-08T01:39:20;13.10;99.90
48264;DHT22;34086;51.076;13.722;2023-08-08T01:40:22;13.10;99.90
48264;DHT22;34086;51.076;13.722;2023-08-08T01:41:23;13.10;99.90
48264;DHT22;34086;51.076;13.722;2023-08-08T01:42:24;13.10;99.90
48264;DHT22;34086;51.076;13.722;2023-08-08T01:43:24;13.10;99.90
48264;DHT22;34086;51.076;13.722;2023-08-08T01:44:26;13.10;99.90
48264;DHT22;34086;51.076;13.722;2023-08-08T01:45:27;13.10;99.90
48264;DHT22;34086;51.076;13.722;2023-08-08T01:46:28;13.10;99.90
48264;DHT22;34086;51.076;13.722;2023-08-08T01:47:29;13.00;99.90
48264;DHT22;34086;51.076;13.722;2023-08-08T01:48:31;13.00;99.90
48264;DHT22;34086;51.076;13.722;2023-08-08T01:49:31;13.00;99.90
48264;DHT22;34086;51.076;13.722;2023-08-08T01:50:32;13.00;99.90
48264;DHT22;34086;51.076;13.722;2023-08-08T01:51:33;13.10;99.90
48264;DHT22;34086;51.076;13.722;2023-08-08T01:52:33;13.10;99.90
48264;DHT22;34086;51.076;13.722;2023-08-08T01:53:34;13.00;99.90
48264;DHT22;34086;51.076;13.722;2023-08-08T01:54:34;13.00;99.90
48264;DHT22;34086;51.076;13.722;2023-08-08T01:55:35;13.00;99.90
48264;DHT22;34086;51.076;13.722;2023-08-08T01:56:35;13.00;99.90
48264;DHT22;34086;51.076;13.722;2023-08-08T01:57:36;13.00;99.90
48264;DHT22;34086;51.076;13.722;2023-08-08T01:58:36;13.00;99.90
48264;DHT22;34086;51.076;13.722;2023-08-08T01:59:37;13.00;99.90
48264;DHT22;34086;51.076;13.722;2023-08-08T02:00:37;13.00;99.90
48264;DHT22;34086;51.076;13.722;2023-08-08T02:01:38;13.00;99.90
48264;DHT22;34086;51.076;13.722;2023-08-08T02:02:39;13.00;99.90
48264;DHT22;34086;51.076;13.722;2023-08-08T02:03:41;13.00;99.90
48264;DHT22;34086;51.076;13.722;2023-08-08T02:04:41;13.00;99.90
48264;DHT22;34086;51.076;13.722;2023-08-08T02:05:42;13.00;99.90
48264;DHT22;34086;51.076;13.722;2023-08-08T02:06:42;13.00;99.90
48264;DHT22;34086;51.076;13.722;2023-08-08T02:07:43;13.00;99.90
48264;DHT22;34086;51.076;13.722;2023-08-08T02:08:44;13.00;99.90
48264;DHT22;34086;51.076;13.722;2023-08-08T02:09:45;13.00;99.90
48264;DHT22;34086;51.076;13.722;2023-08-08T02:10:46;13.00;99.90
48264;DHT22;34086;51.076;13.722;2023-08-08T02:11:47;13.00;99.90
48264;DHT22;34086;51.076;13.722;2023-08-08T02:12:47;13.00;99.90
48264;DHT22;34086;51.076;13.722;2023-08-08T02:13:48;12.90;99.90
48264;DHT22;34086;51.076;13.722;2023-08-08T02:14:48;12.90;99.90
48264;DHT22;34086;51.076;13.722;2023-08-08T02:15:49;12.90;99.90
48264;DHT22;34086;51.076;13.722;2023-08-08T02:16:49;12.90;99.90
48264;DHT22;34086;51.076;13.722;2023-08-08T02:17:50;12.90;99.90
48264;DHT22;34086;51.076;13.722;2023-08-08T02:18:50;12.90;99.90
48264;DHT22;34086;51.076;13.722;2023-08-08T02:19:51;12.90;99.90
48264;DHT22;34086;51.076;13.722;2023-08-08T02:20:52;12.90;99.90
48264;DHT22;34086;51.076;13.722;2023-08-08T02:21:52;12.90;99.90
48264;DHT22;34086;51.076;13.722;2023-08-08T02:22:52;12.90;99.90
48264;DHT22;34086;51.076;13.722;2023-08-08T02:23:53;12.80;99.90
48264;DHT22;34086;51.076;13.722;2023-08-08T02:24:53;12.80;99.90
48264;DHT22;34086;51.076;13.722;2023-08-08T02:25:54;12.80;99.90
48264;DHT22;34086;51.076;13.722;2023-08-08T02:26:55;12.80;99.90
48264;DHT22;34086;51.076;13.722;2023-08-08T02:27:56;12.80;99.90
48264;DHT22;34086;51.076;13.722;2023-08-08T02:28:56;12.80;99.90
48264;DHT22;34086;51.076;13.722;2023-08-08T02:29:57;12.80;99.90
48264;DHT22;34086;51.076;13.722;2023-08-08T02:30:57;12.80;99.90
48264;DHT22;34086;51.076;13.722;2023-08-08T02:31:58;12.80;99.90
48264;DHT22;34086;51.076;13.722;2023-08-08T02:33:00;12.80;99.90
48264;DHT22;34086;51.076;13.722;2023-08-08T02:34:01;12.80;99.90
48264;DHT22;34086;51.076;13.722;2023-08-08T02:35:01;12.70;99.90
48264;DHT22;34086;51.076;13.722;2023-08-08T02:36:02;12.70;99.90
48264;DHT22;34086;51.076;13.722;2023-08-08T02:37:02;12.70;99.90
48264;DHT22;34086;51.076;13.722;2023-08-08T02:38:03;12.70;99.90
48264;DHT22;34086;51.076;13.722;2023-08-08T02:39:04;12.80;99.90
48264;DHT22;34086;51.076;13.722;2023-08-08T02:40:05;12.70;99.90
48264;DHT22;34086;51.076;13.722;2023-08-08T02:41:06;12.70;99.90
48264;DHT22;34086;51.076;13.722;2023-08-08T02:42:06;12.70;99.90
48264;DHT22;34086;51.076;13.722;2023-08-08T02:43:07;12.70;99.90
48264;DHT22;34086;51.076;13.722;2023-08-08T02:44:10;12.60;99.90
48264;DHT22;34086;51.076;13.722;2023-08-08T02:45:11;12.70;99.90
48264;DHT22;34086;51.076;13.722;2023-08-08T02:46:12;12.60;99.90
48264;DHT22;34086;51.076;13.722;2023-08-08T02:47:13;12.60;99.90
48264;DHT22;34086;51.076;13.722;2023-08-08T02:48:13;12.60;99.90
48264;DHT22;34086;51.076;13.722;2023-08-08T02:49:14;12.60;99.90
48264;DHT22;34086;51.076;13.722;2023-08-08T02:50:14;12.60;99.90
48264;DHT22;34086;51.076;13.722;2023-08-08T02:51:15;12.60;99.90
48264;DHT22;34086;51.076;13.722;2023-08-08T02:52:16;12.60;99.90
48264;DHT22;34086;51.076;13.722;2023-08-08T02:53:16;12.60;99.90
48264;DHT22;34086;51.076;13.722;2023-08-08T02:54:21;12.60;99.90
48264;DHT22;34086;51.076;13.722;2023-08-08T02:55:22;12.60;99.90
48264;DHT22;34086;51.076;13.722;2023-08-08T02:56:25;12.60;99.90
48264;DHT22;34086;51.076;13.722;2023-08-08T02:57:27;12.60;99.90
48264;DHT22;34086;51.076;13.722;2023-08-08T02:58:29;12.60;99.90
48264;DHT22;34086;51.076;13.722;2023-08-08T02:59:31;12.50;99.90
48264;DHT22;34086;51.076;13.722;2023-08-08T03:00:34;12.50;99.90
48264;DHT22;34086;51.076;13.722;2023-08-08T03:01:35;12.50;99.90
48264;DHT22;34086;51.076;13.722;2023-08-08T03:02:41;12.50;99.90
48264;DHT22;34086;51.076;13.722;2023-08-08T03:03:43;12.50;99.90
48264;DHT22;34086;51.076;13.722;2023-08-08T03:04:43;12.60;99.90
48264;DHT22;34086;51.076;13.722;2023-08-08T03:05:44;12.50;99.90
48264;DHT22;34086;51.076;13.722;2023-08-08T03:06:46;12.50;99.90
48264;DHT22;34086;51.076;13.722;2023-08-08T03:07:47;12.50;99.90
48264;DHT22;34086;51.076;13.722;2023-08-08T03:08:48;12.50;99.90
48264;DHT22;34086;51.076;13.722;2023-08-08T03:09:49;12.50;99.90
48264;DHT22;34086;51.076;13.722;2023-08-08T03:10:49;12.50;99.90
48264;DHT22;34086;51.076;13.722;2023-08-08T03:11:50;12.50;99.90
48264;DHT22;34086;51.076;13.722;2023-08-08T03:12:51;12.50;99.90
48264;DHT22;34086;51.076;13.722;2023-08-08T03:13:52;12.50;99.90
48264;DHT22;34086;51.076;13.722;2023-08-08T03:14:53;12.50;99.90
48264;DHT22;34086;51.076;13.722;2023-08-08T03:15:54;12.50;99.90
48264;DHT22;34086;51.076;13.722;2023-08-08T03:16:55;12.50;99.90
48264;DHT22;34086;51.076;13.722;2023-08-08T03:17:56;12.50;99.90
48264;DHT22;34086;51.076;13.722;2023-08-08T03:18:57;12.50;99.90
48264;DHT22;34086;51.076;13.722;2023-08-08T03:19:57;12.40;99.90
48264;DHT22;34086;51.076;13.722;2023-08-08T03:20:59;12.40;99.90
48264;DHT22;34086;51.076;13.722;2023-08-08T03:22:01;12.40;99.90
48264;DHT22;34086;51.076;13.722;2023-08-08T03:23:01;12.40;99.90
48264;DHT22;34086;51.076;13.722;2023-08-08T03:24:03;12.40;99.90
48264;DHT22;34086;51.076;13.722;2023-08-08T03:25:04;12.40;99.90
48264;DHT22;34086;51.076;13.722;2023-08-08T03:26:05;12.40;99.90
48264;DHT22;34086;51.076;13.722;2023-08-08T03:27:05;12.40;99.90
48264;DHT22;34086;51.076;13.722;2023-08-08T03:28:06;12.40;99.90
48264;DHT22;34086;51.076;13.722;2023-08-08T03:29:07;12.40;99.90
48264;DHT22;34086;51.076;13.722;2023-08-08T03:30:16;12.40;99.90
48264;DHT22;34086;51.076;13.722;2023-08-08T03:31:18;12.40;99.90
48264;DHT22;34086;51.076;13.722;2023-08-08T03:32:24;12.30;99.90
48264;DHT22;34086;51.076;13.722;2023-08-08T03:33:24;12.30;99.90
48264;DHT22;34086;51.076;13.722;2023-08-08T03:34:25;12.40;99.90
48264;DHT22;34086;51.076;13.722;2023-08-08T03:35:25;12.30;99.90
48264;DHT22;34086;51.076;13.722;2023-08-08T03:36:27;12.30;99.90
48264;DHT22;34086;51.076;13.722;2023-08-08T03:37:27;12.30;99.90
48264;DHT22;34086;51.076;13.722;2023-08-08T03:38:28;12.30;99.90
48264;DHT22;34086;51.076;13.722;2023-08-08T03:39:28;12.40;99.90
48264;DHT22;34086;51.076;13.722;2023-08-08T03:40:29;12.30;99.90
48264;DHT22;34086;51.076;13.722;2023-08-08T03:41:33;12.30;99.90
48264;DHT22;34086;51.076;13.722;2023-08-08T03:42:34;12.30;99.90
48264;DHT22;34086;51.076;13.722;2023-08-08T03:43:34;12.30;99.90
48264;DHT22;34086;51.076;13.722;2023-08-08T03:44:35;12.30;99.90
48264;DHT22;34086;51.076;13.722;2023-08-08T03:45:36;12.30;99.90
48264;DHT22;34086;51.076;13.722;2023-08-08T03:46:39;12.30;99.90
48264;DHT22;34086;51.076;13.722;2023-08-08T03:47:40;12.30;99.90
48264;DHT22;34086;51.076;13.722;2023-08-08T03:48:40;12.30;99.90
48264;DHT22;34086;51.076;13.722;2023-08-08T03:49:41;12.30;99.90
48264;DHT22;34086;51.076;13.722;2023-08-08T03:50:41;12.30;99.90
48264;DHT22;34086;51.076;13.722;2023-08-08T03:51:42;12.30;99.90
48264;DHT22;34086;51.076;13.722;2023-08-08T03:52:42;12.30;99.90
48264;DHT22;34086;51.076;13.722;2023-08-08T03:53:46;12.40;99.90
48264;DHT22;34086;51.076;13.722;2023-08-08T03:54:46;12.40;99.90
48264;DHT22;34086;51.076;13.722;2023-08-08T03:55:47;12.30;99.90
48264;DHT22;34086;51.076;13.722;2023-08-08T03:56:50;12.40;99.90
48264;DHT22;34086;51.076;13.722;2023-08-08T03:57:51;12.40;99.90
48264;DHT22;34086;51.076;13.722;2023-08-08T03:58:52;12.40;99.90
48264;DHT22;34086;51.076;13.722;2023-08-08T03:59:52;12.40;99.90
48264;DHT22;34086;51.076;13.722;2023-08-08T04:00:54;12.40;99.90
48264;DHT22;34086;51.076;13.722;2023-08-08T04:01:57;12.40;99.90
48264;DHT22;34086;51.076;13.722;2023-08-08T04:02:59;12.40;99.90
48264;DHT22;34086;51.076;13.722;2023-08-08T04:04:00;12.40;99.90
48264;DHT22;34086;51.076;13.722;2023-08-08T04:05:01;12.40;99.90
48264;DHT22;34086;51.076;13.722;2023-08-08T04:06:02;12.50;99.90
48264;DHT22;34086;51.076;13.722;2023-08-08T04:07:02;12.50;99.90
48264;DHT22;34086;51.076;13.722;2023-08-08T04:08:03;12.50;99.90
48264;DHT22;34086;51.076;13.722;2023-08-08T04:09:03;12.50;99.90
48264;DHT22;34086;51.076;13.722;2023-08-08T04:10:04;12.50;99.90
48264;DHT22;34086;51.076;13.722;2023-08-08T04:11:05;12.50;99.90
48264;DHT22;34086;51.076;13.722;2023-08-08T04:12:05;12.60;99.90
48264;DHT22;34086;51.076;13.722;2023-08-08T04:13:06;12.60;99.90
48264;DHT22;34086;51.076;13.722;2023-08-08T04:14:07;12.60;99.90
48264;DHT22;34086;51.076;13.722;2023-08-08T04:15:08;12.60;99.90
48264;DHT22;34086;51.076;13.722;2023-08-08T04:16:10;12.70;99.90
48264;DHT22;34086;51.076;13.722;2023-08-08T04:17:13;12.70;99.90
48264;DHT22;34086;51.076;13.722;2023-08-08T04:18:14;12.70;99.90
48264;DHT22;34086;51.076;13.722;2023-08-08T04:19:14;12.80;99.90
48264;DHT22;34086;51.076;13.722;2023-08-08T04:20:15;12.80;99.90
48264;DHT22;34086;51.076;13.722;2023-08-08T04:21:16;12.80;99.90
48264;DHT22;34086;51.076;13.722;2023-08-08T04:22:16;12.80;99.90
48264;DHT22;34086;51.076;13.722;2023-08-08T04:23:17;12.80;99.90
48264;DHT22;34086;51.076;13.722;2023-08-08T04:24:18;12.90;99.90
48264;DHT22;34086;51.076;13.722;2023-08-08T04:25:18;12.90;99.90
48264;DHT22;34086;51.076;13.722;2023-08-08T04:26:21;13.00;99.90
48264;DHT22;34086;51.076;13.722;2023-08-08T04:27:21;13.00;99.90
48264;DHT22;34086;51.076;13.722;2023-08-08T04:28:22;13.10;99.90
48264;DHT22;34086;51.076;13.722;2023-08-08T04:29:22;13.20;99.90
48264;DHT22;34086;51.076;13.722;2023-08-08T04:30:23;13.40;99.90
48264;DHT22;34086;51.076;13.722;2023-08-08T04:31:24;13.70;99.90
48264;DHT22;34086;51.076;13.722;2023-08-08T04:32:26;14.00;99.90
48264;DHT22;34086;51.076;13.722;2023-08-08T04:33:26;14.30;99.90
48264;DHT22;34086;51.076;13.722;2023-08-08T04:34:27;14.60;99.90
48264;DHT22;34086;51.076;13.722;2023-08-08T04:35:27;14.80;99.90
48264;DHT22;34086;51.076;13.722;2023-08-08T04:36:28;15.10;99.90
48264;DHT22;34086;51.076;13.722;2023-08-08T04:37:29;15.30;99.90
48264;DHT22;34086;51.076;13.722;2023-08-08T04:38:29;15.50;99.90
48264;DHT22;34086;51.076;13.722;2023-08-08T04:39:29;15.70;99.90
48264;DHT22;34086;51.076;13.722;2023-08-08T04:40:30;15.80;99.90
48264;DHT22;34086;51.076;13.722;2023-08-08T04:41:31;16.00;99.90
48264;DHT22;34086;51.076;13.722;2023-08-08T04:42:31;16.20;99.90
48264;DHT22;34086;51.076;13.722;2023-08-08T04:43:32;16.10;99.90
48264;DHT22;34086;51.076;13.722;2023-08-08T04:44:32;16.00;99.90
48264;DHT22;34086;51.076;13.722;2023-08-08T04:45:33;15.90;99.90
48264;DHT22;34086;51.076;13.722;2023-08-08T04:46:33;15.90;99.90
48264;DHT22;34086;51.076;13.722;2023-08-08T04:47:34;15.80;99.90
48264;DHT22;34086;51.076;13.722;2023-08-08T04:48:35;15.60;99.90
48264;DHT22;34086;51.076;13.722;2023-08-08T04:49:35;15.50;99.90
48264;DHT22;34086;51.076;13.722;2023-08-08T04:50:36;15.60;99.90
48264;DHT22;34086;51.076;13.722;2023-08-08T04:51:36;15.50;99.90
48264;DHT22;34086;51.076;13.722;2023-08-08T04:52:37;15.60;99.90
48264;DHT22;34086;51.076;13.722;2023-08-08T04:53:37;15.50;99.90
48264;DHT22;34086;51.076;13.722;2023-08-08T04:54:38;15.60;99.90
48264;DHT22;34086;51.076;13.722;2023-08-08T04:55:38;15.60;99.90
48264;DHT22;34086;51.076;13.722;2023-08-08T04:56:39;15.50;99.90
48264;DHT22;34086;51.076;13.722;2023-08-08T04:57:40;15.40;99.90
48264;DHT22;34086;51.076;13.722;2023-08-08T04:58:40;15.20;99.90
48264;DHT22;34086;51.076;13.722;2023-08-08T04:59:41;15.10;99.90
48264;DHT22;34086;51.076;13.722;2023-08-08T05:00:42;15.00;99.90
48264;DHT22;34086;51.076;13.722;2023-08-08T05:01:43;14.90;99.90
48264;DHT22;34086;51.076;13.722;2023-08-08T05:02:43;14.90;99.90
48264;DHT22;34086;51.076;13.722;2023-08-08T05:03:44;14.80;99.90
48264;DHT22;34086;51.076;13.722;2023-08-08T05:04:44;14.80;99.90
48264;DHT22;34086;51.076;13.722;2023-08-08T05:05:45;14.70;99.90
48264;DHT22;34086;51.076;13.722;2023-08-08T05:06:46;14.80;99.90
48264;DHT22;34086;51.076;13.722;2023-08-08T05:07:46;14.80;99.90
48264;DHT22;34086;51.076;13.722;2023-08-08T05:08:48;14.90;99.90
48264;DHT22;34086;51.076;13.722;2023-08-08T05:09:49;14.80;99.90
48264;DHT22;34086;51.076;13.722;2023-08-08T05:10:49;14.90;99.90
48264;DHT22;34086;51.076;13.722;2023-08-08T05:11:50;15.00;99.90
48264;DHT22;34086;51.076;13.722;2023-08-08T05:12:50;15.00;99.90
48264;DHT22;34086;51.076;13.722;2023-08-08T05:13:51;15.20;99.90
48264;DHT22;34086;51.076;13.722;2023-08-08T05:14:51;15.40;99.90
48264;DHT22;34086;51.076;13.722;2023-08-08T05:15:52;15.70;99.90
48264;DHT22;34086;51.076;13.722;2023-08-08T05:16:52;16.00;99.90
48264;DHT22;34086;51.076;13.722;2023-08-08T05:17:53;16.20;99.90
48264;DHT22;34086;51.076;13.722;2023-08-08T05:18:55;16.20;99.90
48264;DHT22;34086;51.076;13.722;2023-08-08T05:19:55;16.30;99.90
48264;DHT22;34086;51.076;13.722;2023-08-08T05:20:56;16.40;99.90
48264;DHT22;34086;51.076;13.722;2023-08-08T05:21:56;16.70;99.90
48264;DHT22;34086;51.076;13.722;2023-08-08T05:22:57;16.90;99.90
48264;DHT22;34086;51.076;13.722;2023-08-08T05:23:58;16.90;99.90
48264;DHT22;34086;51.076;13.722;2023-08-08T05:24:58;16.90;99.90
48264;DHT22;34086;51.076;13.722;2023-08-08T05:25:58;17.10;99.90
48264;DHT22;34086;51.076;13.722;2023-08-08T05:26:59;17.30;99.90
48264;DHT22;34086;51.076;13.722;2023-08-08T05:27:59;17.40;99.90
48264;DHT22;34086;51.076;13.722;2023-08-08T05:29:00;17.50;99.90
48264;DHT22;34086;51.076;13.722;2023-08-08T05:30:01;17.30;99.90
48264;DHT22;34086;51.076;13.722;2023-08-08T05:31:01;17.50;99.90
48264;DHT22;34086;51.076;13.722;2023-08-08T05:32:02;17.60;99.90
48264;DHT22;34086;51.076;13.722;2023-08-08T05:33:04;17.80;99.90
48264;DHT22;34086;51.076;13.722;2023-08-08T05:34:05;18.10;99.90
48264;DHT22;34086;51.076;13.722;2023-08-08T05:35:05;18.10;99.90
48264;DHT22;34086;51.076;13.722;2023-08-08T05:36:06;18.30;99.90
48264;DHT22;34086;51.076;13.722;2023-08-08T05:37:06;18.40;99.90
48264;DHT22;34086;51.076;13.722;2023-08-08T05:38:07;18.70;99.90
48264;DHT22;34086;51.076;13.722;2023-08-08T05:39:07;18.90;99.90
48264;DHT22;34086;51.076;13.722;2023-08-08T05:40:09;19.00;99.90
48264;DHT22;34086;51.076;13.722;2023-08-08T05:41:10;18.80;99.90
48264;DHT22;34086;51.076;13.722;2023-08-08T05:42:11;18.30;99.90
48264;DHT22;34086;51.076;13.722;2023-08-08T05:43:11;17.90;99.90
48264;DHT22;34086;51.076;13.722;2023-08-08T05:44:17;17.60;99.90
48264;DHT22;34086;51.076;13.722;2023-08-08T05:45:17;17.40;99.90
48264;DHT22;34086;51.076;13.722;2023-08-08T05:46:18;17.20;99.90
48264;DHT22;34086;51.076;13.722;2023-08-08T05:47:19;17.00;99.90
48264;DHT22;34086;51.076;13.722;2023-08-08T05:48:19;16.80;99.90
48264;DHT22;34086;51.076;13.722;2023-08-08T05:49:20;16.60;99.90
48264;DHT22;34086;51.076;13.722;2023-08-08T05:50:20;16.40;99.90
48264;DHT22;34086;51.076;13.722;2023-08-08T05:51:21;16.20;99.90
48264;DHT22;34086;51.076;13.722;2023-08-08T05:52:21;16.00;99.90
48264;DHT22;34086;51.076;13.722;2023-08-08T05:53:22;15.80;99.90
48264;DHT22;34086;51.076;13.722;2023-08-08T05:54:23;15.70;99.90
48264;DHT22;34086;51.076;13.722;2023-08-08T05:55:23;15.50;99.90
48264;DHT22;34086;51.076;13.722;2023-08-08T05:56:24;15.40;99.90
48264;DHT22;34086;51.076;13.722;2023-08-08T05:57:25;15.40;99.90
48264;DHT22;34086;51.076;13.722;2023-08-08T05:58:25;15.30;99.90
48264;DHT22;34086;51.076;13.722;2023-08-08T05:59:26;15.30;99.90
48264;DHT22;34086;51.076;13.722;2023-08-08T06:00:26;15.20;99.90
48264;DHT22;34086;51.076;13.722;2023-08-08T06:01:27;15.10;99.90
48264;DHT22;34086;51.076;13.722;2023-08-08T06:02:27;15.00;99.90
48264;DHT22;34086;51.076;13.722;2023-08-08T06:03:28;15.00;99.90
48264;DHT22;34086;51.076;13.722;2023-08-08T06:04:28;14.90;99.90
48264;DHT22;34086;51.076;13.722;2023-08-08T06:05:29;14.90;99.90
48264;DHT22;34086;51.076;13.722;2023-08-08T06:06:29;14.90;99.90
48264;DHT22;34086;51.076;13.722;2023-08-08T06:07:30;14.90;99.90
48264;DHT22;34086;51.076;13.722;2023-08-08T06:08:30;14.90;99.90
48264;DHT22;34086;51.076;13.722;2023-08-08T06:09:32;14.90;99.90
48264;DHT22;34086;51.076;13.722;2023-08-08T06:10:32;14.90;99.90
48264;DHT22;34086;51.076;13.722;2023-08-08T06:11:34;14.90;99.90
48264;DHT22;34086;51.076;13.722;2023-08-08T06:12:34;14.90;99.90
48264;DHT22;34086;51.076;13.722;2023-08-08T06:13:36;14.80;99.90
48264;DHT22;34086;51.076;13.722;2023-08-08T06:14:36;14.80;99.90
48264;DHT22;34086;51.076;13.722;2023-08-08T06:15:37;14.80;99.90
48264;DHT22;34086;51.076;13.722;2023-08-08T06:16:37;14.80;99.90
48264;DHT22;34086;51.076;13.722;2023-08-08T06:17:38;14.80;99.90
48264;DHT22;34086;51.076;13.722;2023-08-08T06:18:39;14.80;99.90
48264;DHT22;34086;51.076;13.722;2023-08-08T06:19:40;14.80;99.90
48264;DHT22;34086;51.076;13.722;2023-08-08T06:20:40;14.70;99.90
48264;DHT22;34086;51.076;13.722;2023-08-08T06:21:41;14.70;99.90